Time;durP1;ratioP1;P1;durP2;ratioP2;P2;SDS_P1;SDS_P2;PMS_P1;PMS_P2;Temp;Humidity;BMP_temperature;BMP_pressure;BME280_temperature;BME280_humidity;BME280_pressure;Samples;Min_cycle;Max_cycle;Signal;HPM_P1;HPM_P2
2023/08/01 00:00:02;;;;;;;3.38;0.93;;;15.70;99.90;;;;;;5065212;28;20028;-72
2023/08/01 00:02:28;;;;;;;4.38;1.73;;;15.70;99.90;;;;;;5064951;28;20230;-72
2023/08/01 00:04:53;;;;;;;6.10;1.63;;;15.70;99.90;;;;;;5048993;28;20107;-73
2023/08/01 00:07:19;;;;;;;5.53;1.10;;;15.60;99.90;;;;;;5048387;28;20554;-74
2023/08/01 00:09:44;;;;;;;5.13;1.30;;;15.60;99.90;;;;;;5047817;28;20052;-73
2023/08/01 00:12:10;;;;;;;7.22;1.33;;;15.60;99.90;;;;;;5048717;28;20036;-71
2023/08/01 00:14:36;;;;;;;6.95;1.90;;;15.50;99.90;;;;;;5063444;28;20024;-73
2023/08/01 00:17:02;;;;;;;7.00;1.85;;;15.50;99.90;;;;;;5041383;28;20032;-73
2023/08/01 00:19:28;;;;;;;3.92;1.27;;;15.50;99.90;;;;;;5045933;28;20032;-73
2023/08/01 00:21:53;;;;;;;8.52;1.38;;;15.50;99.90;;;;;;5066450;28;20036;-73
2023/08/01 00:24:19;;;;;;;9.55;1.90;;;15.50;99.90;;;;;;5048070;28;20032;-72
2023/08/01 00:26:44;;;;;;;3.28;1.33;;;15.50;99.90;;;;;;5065506;28;20040;-72
2023/08/01 00:29:10;;;;;;;4.07;1.30;;;15.50;99.90;;;;;;5065635;28;20036;-72
2023/08/01 00:31:35;;;;;;;6.43;1.60;;;15.40;99.90;;;;;;5063904;28;20044;-71
2023/08/01 00:34:01;;;;;;;4.40;1.67;;;15.40;99.90;;;;;;5065482;28;20041;-72
2023/08/01 00:36:26;;;;;;;4.68;1.50;;;15.40;99.90;;;;;;5045316;28;20125;-72
2023/08/01 00:38:52;;;;;;;7.97;1.60;;;15.40;99.90;;;;;;5048133;28;20071;-72
2023/08/01 00:41:17;;;;;;;3.22;1.42;;;15.40;99.90;;;;;;5066507;28;20086;-71
2023/08/01 00:43:43;;;;;;;2.50;1.17;;;15.30;99.90;;;;;;5046773;28;20194;-72
2023/08/01 00:46:09;;;;;;;3.38;1.48;;;15.30;99.90;;;;;;5066310;28;20035;-73
2023/08/01 00:48:35;;;;;;;5.63;2.33;;;15.30;99.90;;;;;;5046858;28;20058;-72
2023/08/01 00:51:04;;;;;;;2.95;1.48;;;15.20;99.90;;;;;;5065664;28;20032;-72
2023/08/01 00:53:30;;;;;;;5.07;1.63;;;15.20;99.90;;;;;;5042901;28;20037;-74
2023/08/01 00:55:58;;;;;;;12.05;2.28;;;15.20;99.90;;;;;;5048604;28;20089;-72
2023/08/01 00:58:24;;;;;;;5.30;1.50;;;15.10;99.90;;;;;;5047531;28;20116;-72
2023/08/01 01:00:49;;;;;;;6.10;1.98;;;15.10;99.90;;;;;;5047345;28;20531;-72
2023/08/01 01:03:16;;;;;;;5.30;1.75;;;15.10;99.90;;;;;;5065767;28;20029;-72
2023/08/01 01:06:22;;;;;;;6.00;1.80;;;15.10;99.90;;;;;;5047271;28;20081;-72
2023/08/01 01:08:47;;;;;;;9.43;1.80;;;15.00;99.90;;;;;;5064861;28;20075;-71
2023/08/01 01:11:13;;;;;;;5.80;1.70;;;15.00;99.90;;;;;;5070098;28;20458;-72
2023/08/01 01:13:39;;;;;;;5.07;1.83;;;15.00;99.90;;;;;;5068265;28;20405;-71
2023/08/01 01:16:05;;;;;;;5.40;2.20;;;14.90;99.90;;;;;;5069691;28;20423;-72
2023/08/01 01:18:30;;;;;;;6.78;1.60;;;14.90;99.90;;;;;;5067241;28;20044;-71
2023/08/01 01:20:56;;;;;;;4.28;1.65;;;14.90;99.90;;;;;;5068635;28;20029;-72
2023/08/01 01:23:22;;;;;;;8.25;1.50;;;14.90;99.90;;;;;;5069135;28;20040;-71
2023/08/01 01:25:50;;;;;;;9.38;1.83;;;14.90;99.90;;;;;;5068273;28;20478;-71
2023/08/01 01:28:16;;;;;;;3.38;1.52;;;14.90;99.90;;;;;;5068794;28;20040;-71
2023/08/01 01:30:43;;;;;;;7.20;2.53;;;14.90;99.90;;;;;;5050456;28;20044;-71
2023/08/01 01:33:09;;;;;;;4.78;1.40;;;14.90;99.90;;;;;;5050456;28;20413;-72
2023/08/01 01:35:35;;;;;;;7.82;1.90;;;14.90;99.90;;;;;;5048727;28;20036;-72
2023/08/01 01:38:05;;;;;;;7.47;1.88;;;14.90;99.90;;;;;;5068812;28;20043;-71
2023/08/01 01:40:31;;;;;;;9.23;1.50;;;14.80;99.90;;;;;;5064615;28;20075;-73
2023/08/01 01:42:56;;;;;;;7.00;1.73;;;14.80;99.90;;;;;;5069114;28;20174;-72
2023/08/01 01:45:22;;;;;;;4.80;2.00;;;14.80;99.90;;;;;;5050626;28;20131;-72
2023/08/01 01:47:48;;;;;;;10.27;2.10;;;14.80;99.90;;;;;;5068006;28;20035;-72
2023/08/01 01:50:13;;;;;;;11.63;1.85;;;14.80;99.90;;;;;;5050994;28;20109;-70
2023/08/01 01:52:39;;;;;;;6.93;2.22;;;14.70;99.90;;;;;;5049746;28;20498;-73
2023/08/01 01:55:05;;;;;;;6.53;2.00;;;14.70;99.90;;;;;;5069409;28;20052;-72
2023/08/01 01:57:30;;;;;;;5.32;1.88;;;14.70;99.90;;;;;;5049967;28;20032;-69
2023/08/01 01:59:56;;;;;;;5.00;2.20;;;14.80;99.90;;;;;;5069064;28;20032;-70
2023/08/01 02:02:21;;;;;;;6.72;1.85;;;14.80;99.90;;;;;;5051155;28;20028;-71
2023/08/01 02:04:50;;;;;;;12.93;2.72;;;14.90;99.90;;;;;;5049199;28;20089;-71
2023/08/01 02:07:15;;;;;;;9.52;2.20;;;14.90;99.90;;;;;;5051133;28;20043;-71
2023/08/01 02:09:41;;;;;;;7.18;2.35;;;15.00;99.90;;;;;;5067726;28;20409;-71
2023/08/01 02:12:09;;;;;;;8.25;1.80;;;15.00;99.90;;;;;;5068967;28;20060;-70
2023/08/01 02:14:35;;;;;;;15.20;3.17;;;15.00;99.90;;;;;;5067992;28;20035;-70
2023/08/01 02:17:01;;;;;;;10.05;2.20;;;15.00;99.90;;;;;;5068608;28;20032;-71
2023/08/01 02:19:26;;;;;;;6.30;2.30;;;15.10;99.90;;;;;;5064812;28;20417;-70
2023/08/01 02:21:53;;;;;;;7.18;2.25;;;15.10;99.90;;;;;;5068292;28;20429;-70
2023/08/01 02:24:18;;;;;;;8.93;2.22;;;15.10;99.90;;;;;;5066360;28;20039;-70
2023/08/01 02:26:44;;;;;;;7.22;2.05;;;15.10;99.90;;;;;;5049490;28;20044;-72
2023/08/01 02:29:09;;;;;;;7.35;2.42;;;15.10;99.90;;;;;;5068451;28;20044;-71
2023/08/01 02:31:35;;;;;;;8.25;2.17;;;15.20;99.90;;;;;;5067320;28;20060;-70
2023/08/01 02:34:01;;;;;;;8.57;2.10;;;15.20;99.90;;;;;;5067403;28;20035;-72
2023/08/01 02:36:26;;;;;;;11.05;2.40;;;15.20;99.90;;;;;;5066840;28;20123;-71
2023/08/01 02:38:52;;;;;;;10.57;2.75;;;15.20;99.90;;;;;;5068081;28;20069;-71
2023/08/01 02:41:17;;;;;;;9.18;3.15;;;15.20;99.90;;;;;;5068306;28;20041;-71
2023/08/01 02:43:43;;;;;;;12.95;3.30;;;15.30;99.90;;;;;;5046729;28;20052;-71
2023/08/01 02:46:08;;;;;;;12.25;3.10;;;15.30;99.90;;;;;;5049042;28;20501;-72
2023/08/01 02:48:35;;;;;;;10.40;4.03;;;15.30;99.90;;;;;;5066383;28;20047;-72
2023/08/01 02:51:01;;;;;;;8.88;3.47;;;15.30;99.90;;;;;;5049929;28;20586;-71
2023/08/01 02:53:27;;;;;;;10.73;3.03;;;15.40;99.90;;;;;;5066679;28;20032;-71
2023/08/01 02:55:52;;;;;;;7.85;3.25;;;15.40;99.90;;;;;;5049616;28;20146;-72
2023/08/01 02:58:18;;;;;;;7.97;2.83;;;15.40;99.90;;;;;;5049842;28;20549;-71
2023/08/01 03:00:44;;;;;;;8.45;2.75;;;15.40;99.90;;;;;;5066909;28;20039;-72
2023/08/01 03:03:10;;;;;;;16.58;2.85;;;15.40;99.90;;;;;;5049715;28;20079;-72
2023/08/01 03:05:37;;;;;;;12.68;2.95;;;15.50;99.90;;;;;;5065031;28;20509;-71
2023/08/01 03:08:03;;;;;;;7.68;2.25;;;15.50;99.90;;;;;;5048040;28;20043;-71
2023/08/01 03:10:29;;;;;;;9.50;3.10;;;15.50;99.90;;;;;;5047415;28;20037;-71
2023/08/01 03:12:54;;;;;;;9.48;3.17;;;15.50;99.90;;;;;;5066417;28;20035;-72
2023/08/01 03:15:20;;;;;;;14.18;3.40;;;15.50;99.90;;;;;;5066334;28;20107;-70
2023/08/01 03:17:46;;;;;;;13.70;3.20;;;15.50;99.90;;;;;;5047075;28;20056;-72
2023/08/01 03:20:11;;;;;;;7.22;2.17;;;15.50;99.90;;;;;;5066498;28;20024;-69
2023/08/01 03:22:41;;;;;;;9.88;2.38;;;15.50;99.90;;;;;;5064426;28;20390;-69
2023/08/01 03:25:07;;;;;;;8.27;2.10;;;15.40;99.90;;;;;;5046295;28;20115;-69
2023/08/01 03:27:36;;;;;;;6.40;2.08;;;15.40;99.90;;;;;;5064698;28;20502;-69
2023/08/01 03:30:02;;;;;;;6.40;2.10;;;15.40;99.90;;;;;;5047808;28;20083;-68
2023/08/01 03:32:28;;;;;;;4.80;1.52;;;15.40;99.90;;;;;;5064996;28;20456;-70
2023/08/01 03:34:54;;;;;;;7.82;1.95;;;15.30;99.90;;;;;;5065916;28;20064;-70
2023/08/01 03:37:19;;;;;;;5.80;1.80;;;15.30;99.90;;;;;;5066289;28;20129;-72
2023/08/01 03:39:45;;;;;;;9.68;2.53;;;15.20;99.90;;;;;;5065614;28;24820;-71
2023/08/01 03:42:10;;;;;;;5.70;1.80;;;15.20;99.90;;;;;;5066488;28;20032;-69
2023/08/01 03:44:36;;;;;;;10.13;2.63;;;15.20;99.90;;;;;;5045504;28;20346;-70
2023/08/01 03:47:02;;;;;;;10.25;2.28;;;15.10;99.90;;;;;;5066099;28;20033;-69
2023/08/01 03:49:27;;;;;;;7.93;2.42;;;15.10;99.90;;;;;;5065632;28;20032;-70
2023/08/01 03:51:53;;;;;;;6.57;2.45;;;15.10;99.90;;;;;;5047857;28;20111;-71
2023/08/01 03:54:19;;;;;;;11.48;2.63;;;15.10;99.90;;;;;;5066228;28;20032;-69
2023/08/01 03:56:45;;;;;;;11.50;2.97;;;15.20;99.90;;;;;;5065537;28;20387;-70
2023/08/01 03:59:12;;;;;;;10.48;2.35;;;15.20;99.90;;;;;;5048195;28;20095;-69
2023/08/01 04:01:38;;;;;;;8.52;2.42;;;15.30;99.90;;;;;;5047466;28;20052;-71
2023/08/01 04:04:03;;;;;;;6.88;2.78;;;15.30;99.90;;;;;;5048750;28;20045;-72
2023/08/01 04:06:29;;;;;;;16.88;2.90;;;15.30;99.90;;;;;;5046526;28;20049;-72
2023/08/01 04:08:56;;;;;;;8.65;2.40;;;15.30;99.90;;;;;;5066908;28;20432;-71
2023/08/01 04:11:22;;;;;;;15.68;2.55;;;15.40;99.90;;;;;;5065429;28;20101;-71
2023/08/01 04:13:48;;;;;;;10.60;2.25;;;15.40;99.90;;;;;;5047554;28;20029;-72
2023/08/01 04:16:13;;;;;;;9.27;2.83;;;15.40;99.90;;;;;;5066363;28;20047;-71
2023/08/01 04:18:39;;;;;;;8.40;2.33;;;15.40;99.90;;;;;;5063951;28;20043;-72
2023/08/01 04:21:06;;;;;;;15.80;3.15;;;15.40;99.90;;;;;;5063119;28;20040;-70
2023/08/01 04:23:32;;;;;;;9.13;2.30;;;15.40;99.90;;;;;;5064853;28;20048;-72
2023/08/01 04:25:59;;;;;;;11.15;2.78;;;15.40;99.90;;;;;;5066546;28;20489;-71
2023/08/01 04:28:25;;;;;;;9.90;2.28;;;15.40;99.90;;;;;;5065696;28;20121;-69
2023/08/01 04:30:51;;;;;;;12.55;2.75;;;15.40;99.90;;;;;;5065174;28;20052;-70
2023/08/01 04:33:17;;;;;;;13.55;2.83;;;15.50;99.90;;;;;;5066560;28;20037;-70
2023/08/01 04:35:42;;;;;;;11.02;2.78;;;15.50;99.90;;;;;;5065080;28;20042;-71
2023/08/01 04:38:10;;;;;;;18.95;3.22;;;15.50;99.90;;;;;;5047787;28;20071;-71
2023/08/01 04:40:36;;;;;;;9.60;2.25;;;15.50;99.90;;;;;;5065435;28;20055;-70
2023/08/01 04:43:02;;;;;;;10.15;2.50;;;15.60;99.90;;;;;;5050188;28;20508;-73
2023/08/01 04:45:28;;;;;;;13.18;3.38;;;15.60;99.90;;;;;;5050723;28;20031;-72
2023/08/01 04:47:54;;;;;;;9.13;2.88;;;15.70;99.90;;;;;;5051863;28;20116;-70
2023/08/01 04:50:19;;;;;;;14.30;3.35;;;15.70;99.90;;;;;;5070522;28;20043;-70
2023/08/01 04:52:45;;;;;;;11.52;2.50;;;15.70;99.90;;;;;;5069297;28;20036;-70
2023/08/01 04:55:11;;;;;;;8.07;2.58;;;15.70;99.90;;;;;;5049614;28;20056;-71
2023/08/01 04:57:36;;;;;;;11.23;2.85;;;15.70;99.90;;;;;;5062498;28;20036;-70
2023/08/01 05:00:03;;;;;;;11.93;2.63;;;15.70;99.90;;;;;;5067514;28;20108;-73
2023/08/01 05:02:29;;;;;;;13.10;2.58;;;15.70;99.90;;;;;;5066124;28;20054;-72
2023/08/01 05:04:55;;;;;;;11.13;2.50;;;15.70;99.90;;;;;;5067098;28;20430;-73
2023/08/01 05:07:20;;;;;;;7.28;2.38;;;15.70;99.90;;;;;;5066282;28;20496;-73
2023/08/01 05:09:46;;;;;;;10.77;2.35;;;15.70;99.90;;;;;;5064365;28;20041;-72
2023/08/01 05:12:12;;;;;;;12.40;3.30;;;15.80;99.90;;;;;;5048741;28;20044;-73
2023/08/01 05:14:37;;;;;;;8.50;2.05;;;15.80;99.90;;;;;;5065512;28;20097;-71
2023/08/01 05:17:03;;;;;;;12.20;3.05;;;15.80;99.90;;;;;;5050154;28;20036;-68
2023/08/01 05:19:29;;;;;;;13.07;2.30;;;15.80;99.90;;;;;;5046185;28;20035;-70
2023/08/01 05:21:55;;;;;;;12.45;2.22;;;15.80;99.90;;;;;;5065214;28;20028;-69
2023/08/01 05:24:20;;;;;;;12.90;3.50;;;15.80;99.90;;;;;;5046894;28;20036;-71
2023/08/01 05:26:46;;;;;;;9.57;2.25;;;15.90;99.90;;;;;;5048168;28;20520;-70
2023/08/01 05:29:12;;;;;;;13.15;2.28;;;15.80;99.90;;;;;;5067012;28;20767;-70
2023/08/01 05:31:38;;;;;;;7.45;2.13;;;15.90;99.90;;;;;;5065737;28;20147;-71
2023/08/01 05:34:03;;;;;;;9.52;2.08;;;15.90;99.90;;;;;;5066290;28;20166;-70
2023/08/01 05:36:29;;;;;;;10.80;1.90;;;15.90;99.90;;;;;;5047231;28;20048;-71
2023/08/01 05:38:54;;;;;;;4.13;1.35;;;16.00;99.90;;;;;;5048056;28;20493;-71
2023/08/01 05:41:20;;;;;;;10.52;2.90;;;16.00;99.90;;;;;;5048229;28;20051;-72
2023/08/01 05:43:48;;;;;;;7.65;1.50;;;16.00;99.90;;;;;;5047150;28;22728;-71
2023/08/01 05:46:13;;;;;;;9.13;1.40;;;16.00;99.90;;;;;;5047798;28;20136;-73
2023/08/01 05:48:39;;;;;;;4.43;1.40;;;16.00;99.90;;;;;;5046939;28;20119;-71
2023/08/01 05:51:04;;;;;;;11.02;1.52;;;16.00;99.90;;;;;;5066429;28;20474;-70
2023/08/01 05:53:30;;;;;;;8.32;1.42;;;16.00;99.90;;;;;;5064493;28;20032;-71
2023/08/01 05:55:56;;;;;;;5.03;1.10;;;16.00;99.90;;;;;;5065517;28;20048;-71
2023/08/01 05:58:21;;;;;;;4.45;1.70;;;16.00;99.90;;;;;;5064831;28;20081;-70
2023/08/01 06:00:47;;;;;;;8.10;1.60;;;15.90;99.90;;;;;;5065282;28;20036;-72
2023/08/01 06:03:12;;;;;;;7.38;1.55;;;16.00;99.90;;;;;;5047346;28;20043;-72
2023/08/01 06:05:38;;;;;;;12.63;1.98;;;16.00;99.90;;;;;;5046802;28;20041;-70
2023/08/01 06:08:06;;;;;;;5.68;1.27;;;16.20;99.90;;;;;;5065987;28;20644;-72
2023/08/01 06:10:32;;;;;;;11.73;1.73;;;16.20;99.90;;;;;;5046875;28;20576;-71
2023/08/01 06:12:58;;;;;;;8.00;1.75;;;16.30;99.90;;;;;;5065510;28;20055;-70
2023/08/01 06:15:23;;;;;;;7.88;1.95;;;16.40;99.90;;;;;;5065637;28;20045;-70
2023/08/01 06:17:49;;;;;;;9.80;1.50;;;16.40;99.90;;;;;;5064635;28;20044;-71
2023/08/01 06:20:14;;;;;;;7.40;1.40;;;16.50;99.90;;;;;;5065944;28;20538;-69
2023/08/01 06:22:41;;;;;;;5.80;1.33;;;16.70;99.90;;;;;;5046583;28;20525;-71
2023/08/01 06:25:07;;;;;;;11.40;1.70;;;16.70;99.90;;;;;;5065258;28;20036;-72
2023/08/01 06:27:32;;;;;;;9.25;1.63;;;16.80;99.90;;;;;;5044759;28;20046;-73
2023/08/01 06:29:58;;;;;;;6.70;1.20;;;16.80;99.90;;;;;;5063483;28;20048;-70
2023/08/01 06:32:23;;;;;;;3.33;1.05;;;16.90;99.90;;;;;;5065160;28;20060;-71
2023/08/01 06:34:49;;;;;;;5.57;1.27;;;16.90;99.90;;;;;;5064901;28;20401;-70
2023/08/01 06:37:14;;;;;;;6.55;1.00;;;17.00;99.90;;;;;;5064088;28;20032;-71
2023/08/01 06:39:40;;;;;;;4.68;1.15;;;17.10;99.90;;;;;;5046058;28;21377;-71
2023/08/01 06:42:06;;;;;;;9.27;1.23;;;17.30;99.90;;;;;;5064886;28;20470;-72
2023/08/01 06:44:31;;;;;;;7.43;1.48;;;17.70;99.90;;;;;;5046134;28;20561;-71
2023/08/01 06:46:57;;;;;;;3.92;0.90;;;18.20;99.90;;;;;;5045937;28;20139;-71
2023/08/01 06:49:22;;;;;;;6.07;1.23;;;18.50;99.90;;;;;;5065514;28;20055;-72
2023/08/01 06:51:48;;;;;;;4.95;0.88;;;18.70;99.90;;;;;;5063793;28;20136;-71
2023/08/01 06:54:14;;;;;;;4.72;0.88;;;18.90;99.90;;;;;;5064571;28;20037;-70
2023/08/01 06:56:39;;;;;;;3.47;0.88;;;19.00;99.90;;;;;;5041650;28;20147;-71
2023/08/01 06:59:05;;;;;;;6.38;1.45;;;18.80;99.90;;;;;;5060819;28;20061;-71
2023/08/01 07:01:32;;;;;;;8.48;1.33;;;18.50;99.90;;;;;;5062972;28;20043;-71
2023/08/01 07:03:58;;;;;;;4.68;1.30;;;18.30;99.90;;;;;;5046138;28;20497;-72
2023/08/01 07:06:24;;;;;;;4.50;0.80;;;18.00;99.90;;;;;;5063729;28;20079;-71
2023/08/01 07:08:50;;;;;;;4.82;1.30;;;18.20;99.90;;;;;;5045624;28;20471;-70
2023/08/01 07:11:15;;;;;;;5.53;0.90;;;18.60;99.90;;;;;;5046335;28;20033;-72
2023/08/01 07:13:41;;;;;;;6.20;0.88;;;18.90;99.90;;;;;;5063680;28;20385;-70
2023/08/01 07:16:06;;;;;;;4.50;1.05;;;18.90;99.90;;;;;;5064512;28;20047;-70
2023/08/01 07:18:32;;;;;;;5.20;1.65;;;18.50;99.90;;;;;;5062747;28;20028;-71
2023/08/01 07:21:02;;;;;;;6.03;1.13;;;18.10;99.90;;;;;;5045622;28;20548;-72
2023/08/01 07:23:28;;;;;;;3.40;0.75;;;17.70;99.90;;;;;;5044936;28;20597;-71
2023/08/01 07:25:54;;;;;;;4.85;0.88;;;17.40;99.90;;;;;;5062712;28;20059;-71
2023/08/01 07:28:20;;;;;;;4.03;0.85;;;17.80;99.90;;;;;;5045734;28;20208;-71
2023/08/01 07:30:45;;;;;;;4.90;0.70;;;19.10;99.90;;;;;;5060972;28;20154;-72
2023/08/01 07:33:11;;;;;;;3.60;0.77;;;20.20;99.90;;;;;;5062447;28;20063;-72
2023/08/01 07:35:38;;;;;;;5.38;0.90;;;21.10;99.90;;;;;;5044609;28;20048;-71
2023/08/01 07:38:03;;;;;;;3.78;1.00;;;22.00;99.90;;;;;;5045061;28;20094;-72
2023/08/01 07:40:29;;;;;;;7.40;1.35;;;22.70;99.90;;;;;;5044227;28;20036;-73
2023/08/01 07:42:54;;;;;;;4.03;1.23;;;23.20;99.90;;;;;;5064232;28;20036;-72
2023/08/01 07:45:20;;;;;;;3.67;0.90;;;23.60;99.90;;;;;;5064435;28;20074;-72
2023/08/01 07:47:46;;;;;;;2.92;1.13;;;23.80;99.90;;;;;;5044102;28;20482;-71
2023/08/01 07:50:11;;;;;;;3.30;1.35;;;23.90;99.90;;;;;;5064251;28;20036;-71
2023/08/01 07:52:37;;;;;;;5.68;1.10;;;23.60;99.90;;;;;;5063233;28;20044;-71
2023/08/01 07:55:03;;;;;;;2.90;0.95;;;23.30;99.90;;;;;;5063494;28;20576;-72
2023/08/01 07:57:28;;;;;;;3.20;0.80;;;22.80;99.90;;;;;;5061564;28;20116;-72
2023/08/01 07:59:54;;;;;;;4.20;1.08;;;22.30;99.90;;;;;;5063912;28;20137;-71
2023/08/01 08:02:19;;;;;;;5.75;0.60;;;21.80;99.90;;;;;;5064131;28;20056;-71
2023/08/01 08:04:45;;;;;;;4.07;1.17;;;21.40;99.90;;;;;;5063022;28;20112;-70
2023/08/01 08:17:32;;;;;;;3.95;0.75;;;20.60;99.90;;;;;;5518066;22;20044;-71
2023/08/01 08:19:57;;;;;;;3.90;0.50;;;20.50;99.90;;;;;;5033324;28;20437;-73
2023/08/01 08:22:23;;;;;;;5.03;1.08;;;20.40;99.90;;;;;;5050812;28;20032;-71
2023/08/01 08:24:50;;;;;;;2.72;0.60;;;20.40;99.90;;;;;;5052144;28;20477;-70
2023/08/01 08:27:15;;;;;;;4.30;0.77;;;20.30;99.90;;;;;;5033174;28;20045;-71
2023/08/01 08:29:41;;;;;;;7.90;0.80;;;20.20;99.90;;;;;;5039972;28;20102;-70
2023/08/01 08:32:07;;;;;;;6.82;1.10;;;20.00;99.90;;;;;;5015916;28;20906;-71
2023/08/01 08:34:32;;;;;;;3.83;1.08;;;19.90;99.90;;;;;;5014161;28;20482;-72
2023/08/01 08:36:58;;;;;;;7.55;1.00;;;19.70;99.90;;;;;;5040612;28;20086;-72
2023/08/01 08:39:24;;;;;;;6.40;0.75;;;19.70;99.90;;;;;;5034447;28;20063;-72
2023/08/01 08:41:51;;;;;;;4.28;0.70;;;19.80;99.90;;;;;;5036636;28;20037;-73
2023/08/01 08:44:20;;;;;;;3.13;0.70;;;20.00;99.90;;;;;;5013335;28;20045;-73
2023/08/01 08:46:50;;;;;;;3.05;1.08;;;20.20;99.90;;;;;;5033405;28;20408;-71
2023/08/01 08:49:17;;;;;;;5.78;1.55;;;20.20;99.90;;;;;;5016931;28;20244;-72
2023/08/01 08:51:44;;;;;;;3.50;0.93;;;20.10;99.90;;;;;;5024978;28;20073;-71
2023/08/01 08:54:11;;;;;;;3.45;0.82;;;20.10;99.90;;;;;;5018909;28;20034;-71
2023/08/01 08:56:38;;;;;;;1.65;0.70;;;20.10;99.90;;;;;;5016142;28;20055;-70
2023/08/01 08:59:04;;;;;;;2.75;0.70;;;20.10;99.90;;;;;;5017874;28;20481;-72
2023/08/01 09:01:32;;;;;;;2.95;0.82;;;20.10;99.90;;;;;;5017078;28;20029;-72
2023/08/01 09:03:57;;;;;;;4.03;1.00;;;20.10;99.90;;;;;;4998145;28;20049;-72
2023/08/01 09:06:37;;;;;;;3.90;0.45;;;20.20;99.90;;;;;;5010078;28;20755;-72
2023/08/01 09:09:10;;;;;;;3.27;0.87;;;20.10;99.90;;;;;;5013303;28;20561;-72
2023/08/01 09:11:49;;;;;;;5.72;1.88;;;20.20;99.90;;;;;;5013176;28;20029;-71
2023/08/01 09:14:15;;;;;;;10.95;1.85;;;20.40;99.90;;;;;;5010941;28;20037;-72
2023/08/01 09:16:42;;;;;;;4.22;0.90;;;20.30;99.90;;;;;;5013247;28;20029;-71
2023/08/01 09:19:08;;;;;;;4.10;0.80;;;20.40;99.90;;;;;;5029173;28;20599;-71
2023/08/01 09:21:35;;;;;;;7.05;1.48;;;20.50;99.90;;;;;;5025765;28;20034;-71
2023/08/01 09:24:13;;;;;;;9.27;1.10;;;20.70;99.90;;;;;;5025291;28;20037;-71
2023/08/01 09:26:40;;;;;;;7.22;0.93;;;20.90;99.90;;;;;;5013367;28;20038;-72
2023/08/01 09:29:05;;;;;;;2.20;0.80;;;20.80;99.90;;;;;;5004292;28;20129;-72
2023/08/01 09:31:39;;;;;;;5.57;0.98;;;20.80;99.90;;;;;;5001836;28;20526;-72
2023/08/01 09:34:06;;;;;;;2.83;1.10;;;20.80;99.90;;;;;;5012639;28;20041;-70
2023/08/01 09:36:34;;;;;;;4.78;1.05;;;20.90;99.90;;;;;;4990953;28;20506;-72
2023/08/01 09:39:04;;;;;;;5.30;0.75;;;21.00;99.90;;;;;;5011295;28;20100;-71
2023/08/01 09:41:30;;;;;;;4.77;0.80;;;21.00;99.90;;;;;;4993143;28;20041;-70
2023/08/01 09:43:57;;;;;;;6.57;0.90;;;20.90;99.90;;;;;;5011542;28;20033;-71
2023/08/01 09:46:23;;;;;;;2.40;0.47;;;20.80;99.90;;;;;;5013138;28;20034;-71
2023/08/01 09:48:49;;;;;;;7.15;1.08;;;20.60;99.90;;;;;;4995853;28;20029;-70
2023/08/01 09:51:19;;;;;;;4.28;0.88;;;20.60;99.90;;;;;;5015262;28;20038;-71
2023/08/01 09:53:56;;;;;;;3.72;0.80;;;20.70;99.90;;;;;;5011098;28;20038;-71
2023/08/01 09:56:23;;;;;;;3.83;0.70;;;20.90;99.90;;;;;;4995881;28;20369;-71
2023/08/01 09:58:51;;;;;;;3.35;0.73;;;21.20;99.90;;;;;;4993268;28;20060;-72
2023/08/01 10:01:19;;;;;;;2.90;0.88;;;21.50;99.90;;;;;;5014355;28;20088;-72
2023/08/01 10:03:47;;;;;;;2.47;0.60;;;21.80;99.90;;;;;;5010221;28;20037;-72
2023/08/01 10:06:28;;;;;;;1.65;0.40;;;22.00;99.90;;;;;;5018120;28;20030;-73
2023/08/01 10:08:53;;;;;;;;;;;22.10;99.90;;;;;;4998287;28;20478;-71
2023/08/01 10:11:21;;;;;;;4.82;0.57;;;22.20;99.90;;;;;;5012974;28;19920;-71
2023/08/01 10:13:47;;;;;;;5.07;0.93;;;22.40;99.90;;;;;;4996447;28;20104;-71
2023/08/01 10:16:13;;;;;;;1.77;0.57;;;22.60;99.90;;;;;;5010477;28;20080;-71
2023/08/01 10:18:39;;;;;;;4.78;0.60;;;22.60;99.90;;;;;;4989562;28;20042;-72
2023/08/01 10:21:07;;;;;;;4.03;0.75;;;22.40;99.90;;;;;;5008533;28;20121;-71
2023/08/01 10:23:34;;;;;;;2.13;0.40;;;22.10;99.90;;;;;;5009748;28;20087;-72
2023/08/01 10:26:03;;;;;;;3.35;0.60;;;21.80;99.90;;;;;;4982795;28;20038;-72
2023/08/01 10:28:37;;;;;;;5.57;0.65;;;21.70;99.90;;;;;;4987756;28;20042;-72
2023/08/01 10:31:17;;;;;;;3.92;0.68;;;21.60;99.90;;;;;;4994958;28;20054;-71
2023/08/01 10:33:44;;;;;;;6.88;1.52;;;21.70;99.90;;;;;;4994477;28;20063;-71
2023/08/01 10:36:19;;;;;;;5.25;0.57;;;21.70;99.90;;;;;;4993707;28;20049;-71
2023/08/01 10:38:47;;;;;;;3.58;0.73;;;21.60;99.90;;;;;;5009840;28;20061;-71
2023/08/01 10:41:30;;;;;;;3.83;0.65;;;21.40;99.90;;;;;;4989489;28;20377;-71
2023/08/01 10:44:12;;;;;;;2.45;0.60;;;21.40;99.90;;;;;;4995309;28;20506;-71
2023/08/01 10:46:56;;;;;;;2.90;0.45;;;21.70;99.90;;;;;;5011381;28;20143;-71
2023/08/01 10:49:34;;;;;;;5.38;1.00;;;21.70;99.90;;;;;;4995430;28;20498;-70
2023/08/01 10:52:00;;;;;;;3.35;0.57;;;21.50;99.90;;;;;;4989367;28;20495;-70
2023/08/01 10:54:26;;;;;;;3.30;0.80;;;21.30;99.90;;;;;;5018626;28;20144;-69
2023/08/01 10:56:55;;;;;;;5.78;0.80;;;21.00;99.90;;;;;;5027663;28;20108;-71
2023/08/01 10:59:21;;;;;;;1.98;0.43;;;20.80;99.90;;;;;;5003481;28;20030;-72
2023/08/01 11:01:52;;;;;;;4.97;0.82;;;20.70;99.90;;;;;;5006348;28;20052;-70
2023/08/01 11:04:22;;;;;;;2.53;0.80;;;20.60;99.90;;;;;;5011134;28;20038;-70
2023/08/01 11:06:55;;;;;;;6.63;1.05;;;20.50;99.90;;;;;;5017692;28;22084;-71
2023/08/01 11:09:25;;;;;;;4.85;0.90;;;20.60;99.90;;;;;;5029084;28;20021;-70
2023/08/01 11:11:53;;;;;;;5.93;0.73;;;20.70;99.90;;;;;;5005053;28;20571;-69
2023/08/01 11:14:25;;;;;;;4.15;0.70;;;21.00;99.90;;;;;;5028519;28;20065;-70
2023/08/01 11:16:51;;;;;;;3.45;0.80;;;21.30;99.90;;;;;;4988957;28;20461;-71
2023/08/01 11:19:29;;;;;;;2.60;0.30;;;21.60;99.90;;;;;;5013870;28;20442;-69
2023/08/01 11:21:56;;;;;;;6.20;0.82;;;21.80;99.90;;;;;;4994054;28;20045;-72
2023/08/01 11:24:23;;;;;;;7.05;0.95;;;21.90;99.90;;;;;;4991608;28;20037;-70
2023/08/01 11:26:50;;;;;;;3.53;0.60;;;21.80;99.90;;;;;;4993393;28;20049;-70
2023/08/01 11:29:17;;;;;;;9.18;0.95;;;21.70;99.90;;;;;;4995136;28;20026;-70
2023/08/01 11:32:05;;;;;;;1.92;0.70;;;21.50;99.90;;;;;;4987681;28;20038;-71
2023/08/01 11:34:46;;;;;;;1.90;0.45;;;21.40;99.90;;;;;;5005096;28;20450;-70
2023/08/01 11:37:13;;;;;;;4.03;0.98;;;21.50;99.90;;;;;;5008767;28;20519;-70
2023/08/01 11:39:39;;;;;;;2.97;0.32;;;21.70;99.90;;;;;;5012829;28;20041;-72
2023/08/01 11:42:05;;;;;;;5.45;0.80;;;21.90;99.90;;;;;;4990543;28;20172;-71
2023/08/01 11:44:30;;;;;;;2.83;0.52;;;22.00;99.90;;;;;;5006732;28;20288;-72
2023/08/01 11:46:56;;;;;;;6.05;1.27;;;21.90;99.90;;;;;;5009935;28;20038;-71
2023/08/01 11:49:22;;;;;;;5.40;0.77;;;21.60;99.90;;;;;;5006165;28;20084;-71
2023/08/01 11:51:48;;;;;;;5.20;1.13;;;21.50;99.90;;;;;;5008097;28;20108;-71
2023/08/01 11:54:14;;;;;;;2.55;0.60;;;21.50;99.90;;;;;;4988462;28;20042;-70
2023/08/01 11:56:41;;;;;;;3.45;0.55;;;21.70;99.90;;;;;;4986837;28;20354;-70
2023/08/01 11:59:17;;;;;;;4.78;0.80;;;21.70;99.90;;;;;;5007662;28;20045;-70
2023/08/01 12:01:45;;;;;;;4.93;0.80;;;21.60;99.90;;;;;;5008071;28;20030;-70
2023/08/01 12:04:11;;;;;;;5.88;0.90;;;21.40;99.90;;;;;;5008742;28;20034;-70
2023/08/01 12:06:38;;;;;;;4.65;0.50;;;21.20;99.90;;;;;;4988062;28;20096;-70
2023/08/01 12:09:12;;;;;;;4.90;0.90;;;21.00;99.90;;;;;;5009715;28;20056;-70
2023/08/01 12:11:38;;;;;;;7.40;1.23;;;20.80;99.90;;;;;;4995312;28;20498;-70
2023/08/01 12:14:12;;;;;;;4.57;0.75;;;20.60;99.90;;;;;;5010664;28;20068;-72
2023/08/01 12:16:39;;;;;;;7.38;1.60;;;20.50;99.90;;;;;;4989396;28;20050;-72
2023/08/01 12:19:05;;;;;;;3.35;0.60;;;20.50;99.90;;;;;;5007746;28;20399;-72
2023/08/01 12:21:32;;;;;;;2.92;0.50;;;20.60;99.90;;;;;;4995480;28;20257;-71
2023/08/01 12:23:58;;;;;;;3.22;0.57;;;20.70;99.90;;;;;;5011469;28;20037;-72
2023/08/01 12:26:24;;;;;;;5.05;0.55;;;20.70;99.90;;;;;;4989526;28;20041;-72
2023/08/01 12:28:49;;;;;;;3.50;0.77;;;20.80;99.90;;;;;;5010723;28;20099;-70
2023/08/01 12:31:19;;;;;;;4.05;0.40;;;20.80;99.90;;;;;;5010520;28;20523;-70
2023/08/01 12:33:46;;;;;;;4.65;1.17;;;20.80;99.90;;;;;;5009599;28;20037;-70
2023/08/01 12:36:12;;;;;;;2.22;0.45;;;20.70;99.90;;;;;;4993307;28;20091;-70
2023/08/01 12:38:37;;;;;;;3.60;0.70;;;20.60;99.90;;;;;;5008853;28;20140;-70
2023/08/01 12:41:03;;;;;;;1.55;0.40;;;20.50;99.90;;;;;;4993482;28;20422;-70
2023/08/01 12:43:29;;;;;;;2.97;0.50;;;20.40;99.90;;;;;;4993407;28;20038;-70
2023/08/01 12:45:56;;;;;;;4.97;0.43;;;20.40;99.90;;;;;;5008105;28;20120;-70
2023/08/01 12:48:22;;;;;;;4.63;0.95;;;20.20;99.90;;;;;;5008429;28;20536;-71
2023/08/01 12:50:48;;;;;;;5.10;0.73;;;19.90;99.90;;;;;;4992347;28;22282;-70
2023/08/01 12:53:14;;;;;;;5.90;1.15;;;19.70;99.90;;;;;;4994957;28;20514;-72